Aviation Digital Data Service (ADDS)

Output produced by METARs form (0307 UTC 29 March 2015)
found at http://aviationweather.gov/adds/metars/
 
KACY 290307Z 2903/2924 30010G18KT P6SM SCT050 
     FM291400 32008KT P6SM SKC 
     FM292000 26007KT P6SM SKC